Time;durP1;ratioP1;P1;durP2;ratioP2;P2;SDS_P1;SDS_P2;PMS_P1;PMS_P2;Temp;Humidity;BMP_temperature;BMP_pressure;BME280_temperature;BME280_humidity;BME280_pressure;Samples;Min_cycle;Max_cycle;Signal;HPM_P1;HPM_P2
2022/04/02 07:23:34;;;;;;;4.00;3.15;;;;;;;;;;5111231;27;20457;-67
2022/04/02 07:26:00;;;;;;;3.40;3.20;;;;;;;;;;5111205;28;20206;-67
2022/04/02 07:28:27;;;;;;;3.88;3.55;;;;;;;;;;5111150;28;20202;-67
2022/04/02 07:30:53;;;;;;;5.45;3.30;;;;;;;;;;5111503;28;20186;-67
2022/04/02 07:33:19;;;;;;;3.90;3.60;;;;;;;;;;5110900;28;20170;-68
2022/04/02 07:35:53;;;;;;;3.17;2.97;;;;;;;;;;5111062;28;20163;-67
2022/04/02 07:38:28;;;;;;;3.65;3.45;;;;;;;;;;5109903;28;20537;-67
2022/04/02 07:41:12;;;;;;;4.25;3.88;;;;;;;;;;5110956;28;20646;-67
2022/04/02 07:43:50;;;;;;;4.65;3.65;;;;;;;;;;5110604;28;20183;-67
2022/04/02 07:46:22;;;;;;;4.10;3.65;;;;;;;;;;5110619;28;20166;-65
2022/04/02 07:48:49;;;;;;;7.15;3.42;;;;;;;;;;5110733;28;20171;-65
2022/04/02 07:51:16;;;;;;;4.78;3.00;;;;;;;;;;5109337;28;20583;-65
2022/04/02 07:53:46;;;;;;;5.20;3.00;;;;;;;;;;5111143;28;20178;-65
2022/04/02 07:56:18;;;;;;;3.40;3.17;;;;;;;;;;5110675;28;20164;-65
2022/04/02 07:58:46;;;;;;;3.53;3.28;;;;;;;;;;5110646;28;20171;-67
2022/04/02 08:01:13;;;;;;;6.75;3.15;;;;;;;;;;5110521;28;20250;-66
2022/04/02 08:03:42;;;;;;;4.28;3.97;;;;;;;;;;5110545;28;20171;-66
2022/04/02 08:06:10;;;;;;;5.43;3.70;;;;;;;;;;5110415;28;20163;-67
2022/04/02 08:08:37;;;;;;;4.78;3.20;;;;;;;;;;5110304;28;20167;-67
2022/04/02 08:11:03;;;;;;;3.20;3.00;;;;;;;;;;5109504;28;20164;-67
2022/04/02 08:13:30;;;;;;;3.63;3.22;;;;;;;;;;5109607;28;20164;-67
2022/04/02 08:15:56;;;;;;;3.85;3.33;;;;;;;;;;5110194;28;20258;-67
2022/04/02 08:18:26;;;;;;;3.83;3.53;;;0.30;99.90;;;;;;5110075;28;20528;-67
2022/04/02 08:20:52;;;;;;;3.83;3.15;;;1.60;99.90;;;;;;5110058;28;20217;-67
2022/04/02 08:23:18;;;;;;;8.23;3.42;;;1.80;99.90;;;;;;5109558;28;20580;-67
2022/04/02 08:26:13;;;;;;;4.20;3.00;;;1.80;99.90;;;;;;5110065;28;20258;-67
2022/04/02 08:29:24;;;;;;;3.65;3.35;;;2.00;99.90;;;;;;5110070;28;20163;-67
2022/04/02 08:32:26;;;;;;;5.50;3.75;;;2.10;99.90;;;;;;5109962;28;20159;-66
2022/04/02 08:35:07;;;;;;;4.10;3.30;;;2.10;99.90;;;;;;5096440;28;20175;-66
2022/04/02 08:37:51;;;;;;;4.18;3.33;;;2.00;99.90;;;;;;5095052;28;20202;-66
2022/04/02 08:40:50;;;;;;;3.70;3.40;;;1.90;99.90;;;;;;5096260;28;20199;-66
2022/04/02 08:43:59;;;;;;;5.93;3.38;;;2.00;99.90;;;;;;5094885;28;20488;-66
2022/04/02 08:46:34;;;;;;;4.28;3.20;;;2.10;99.90;;;;;;5094855;28;20641;-66
2022/04/02 08:49:26;;;;;;;3.55;3.35;;;2.20;99.90;;;;;;5096065;28;20159;-66
2022/04/02 08:52:14;;;;;;;5.03;3.60;;;2.30;99.90;;;;;;5096059;28;20164;-66
2022/04/02 08:54:55;;;;;;;8.85;4.50;;;2.40;99.90;;;;;;5095952;28;20172;-66
2022/04/02 08:57:29;;;;;;;7.88;3.55;;;2.40;99.90;;;;;;5095957;28;20224;-66
2022/04/02 09:00:09;;;;;;;3.78;3.47;;;2.50;99.90;;;;;;5095999;28;20237;-66
2022/04/02 09:02:59;;;;;;;6.68;3.88;;;2.60;99.90;;;;;;5094474;28;20672;-66
2022/04/02 09:05:49;;;;;;;5.18;3.53;;;2.60;99.90;;;;;;5095789;28;20176;-66
2022/04/02 09:08:33;;;;;;;3.22;3.03;;;2.70;99.90;;;;;;5094356;28;20167;-66
2022/04/02 09:11:25;;;;;;;5.78;3.75;;;2.70;99.90;;;;;;5095667;28;20160;-66
2022/04/02 09:14:18;;;;;;;3.53;3.33;;;2.70;99.90;;;;;;5095634;28;20203;-66
2022/04/02 09:17:21;;;;;;;4.68;3.75;;;2.60;99.90;;;;;;5095586;28;20172;-66
2022/04/02 09:20:08;;;;;;;3.67;3.45;;;2.70;99.90;;;;;;5095478;28;20246;-66
2022/04/02 09:22:47;;;;;;;3.30;3.00;;;2.70;99.90;;;;;;5095297;28;20227;-66
2022/04/02 09:25:13;;;;;;;3.72;3.45;;;2.80;99.90;;;;;;5095404;28;20203;-66
2022/04/02 09:28:09;;;;;;;4.03;3.83;;;2.70;99.90;;;;;;5095323;28;20187;-66
2022/04/02 09:31:13;;;;;;;6.07;3.50;;;2.70;99.90;;;;;;5095213;28;20186;-66
2022/04/02 09:34:06;;;;;;;3.88;3.67;;;2.70;99.90;;;;;;5095192;28;20163;-66
2022/04/02 09:37:13;;;;;;;3.15;2.95;;;2.70;99.90;;;;;;5095168;28;20171;-66
2022/04/02 09:39:46;;;;;;;4.65;3.90;;;2.70;99.90;;;;;;5095097;28;20195;-66
2022/04/02 09:42:31;;;;;;;4.32;3.70;;;2.80;99.90;;;;;;5095047;28;20192;-66
2022/04/02 09:45:18;;;;;;;4.20;3.90;;;3.00;99.90;;;;;;5094075;28;20637;-66
2022/04/02 09:48:08;;;;;;;3.88;3.53;;;3.00;99.90;;;;;;5094998;28;20246;-65
2022/04/02 09:50:34;;;;;;;4.00;3.70;;;3.00;99.90;;;;;;5094894;28;20164;-66
2022/04/02 09:53:32;;;;;;;3.10;2.90;;;3.10;99.90;;;;;;5094719;28;20172;-66
2022/04/02 09:56:33;;;;;;;3.53;3.33;;;3.20;99.90;;;;;;5090495;28;20180;-66
2022/04/02 09:59:29;;;;;;;3.50;3.30;;;3.20;99.90;;;;;;5094609;28;20171;-65
2022/04/02 10:02:00;;;;;;;3.88;3.55;;;3.20;99.90;;;;;;5094567;28;20592;-66
2022/04/02 10:04:42;;;;;;;3.70;3.25;;;3.20;99.90;;;;;;5094682;28;20168;-66
2022/04/02 10:07:24;;;;;;;4.07;3.67;;;3.20;99.90;;;;;;5094586;28;20517;-66
2022/04/02 10:09:55;;;;;;;4.35;3.00;;;3.30;99.90;;;;;;5094629;28;20229;-66
2022/04/02 10:12:26;;;;;;;3.40;3.10;;;3.40;99.90;;;;;;5094533;28;20636;-66
2022/04/02 10:14:59;;;;;;;5.30;3.33;;;3.40;99.90;;;;;;5094524;28;20528;-65
2022/04/02 10:17:30;;;;;;;3.35;3.05;;;3.50;99.90;;;;;;5094375;28;20172;-66
2022/04/02 10:19:59;;;;;;;5.47;3.42;;;3.50;99.90;;;;;;5093087;28;20191;-65
2022/04/02 10:22:36;;;;;;;6.05;3.17;;;3.60;99.90;;;;;;5094130;28;20228;-65
2022/04/02 10:25:07;;;;;;;3.42;3.22;;;3.70;99.90;;;;;;5094342;28;20167;-65
2022/04/02 10:27:34;;;;;;;3.53;3.22;;;3.80;99.90;;;;;;5094242;28;20163;-66
2022/04/02 10:30:03;;;;;;;7.72;3.40;;;3.80;99.90;;;;;;5094181;28;20275;-65
2022/04/02 10:32:44;;;;;;;3.33;3.03;;;3.90;99.90;;;;;;5094116;28;20168;-65
2022/04/02 10:35:12;;;;;;;5.07;3.53;;;3.90;99.90;;;;;;5094164;28;20717;-65
2022/04/02 10:37:42;;;;;;;3.60;3.30;;;4.00;99.90;;;;;;5094045;28;20168;-65
2022/04/02 10:40:11;;;;;;;4.03;3.72;;;4.20;99.90;;;;;;5094048;28;20164;-65
2022/04/02 10:42:39;;;;;;;3.30;3.10;;;4.20;99.90;;;;;;5093938;28;20199;-65
2022/04/02 10:45:07;;;;;;;3.45;3.25;;;4.20;99.90;;;;;;5093925;28;20220;-65
2022/04/02 10:47:47;;;;;;;4.40;3.63;;;4.30;99.90;;;;;;5093944;28;20254;-65
2022/04/02 10:50:17;;;;;;;4.63;3.25;;;4.40;99.90;;;;;;5093898;28;20160;-65
2022/04/02 10:52:46;;;;;;;3.28;2.97;;;4.60;99.90;;;;;;5093713;28;20175;-65
2022/04/02 10:55:15;;;;;;;4.00;3.60;;;4.70;99.90;;;;;;5093794;28;20176;-65
2022/04/02 10:57:41;;;;;;;5.85;3.80;;;4.70;99.90;;;;;;5093511;28;20171;-66
2022/04/02 11:00:09;;;;;;;6.28;4.38;;;4.60;99.90;;;;;;5093730;28;20176;-65
2022/04/02 11:02:42;;;;;;;3.63;3.42;;;4.40;99.90;;;;;;5093683;28;20195;-65
2022/04/02 11:05:16;;;;;;;3.60;3.33;;;4.40;99.90;;;;;;5093663;28;20175;-65
2022/04/02 11:07:44;;;;;;;3.30;3.08;;;4.40;99.90;;;;;;5093533;28;20212;-65
2022/04/02 11:10:18;;;;;;;3.88;3.60;;;4.30;99.90;;;;;;5093620;28;20167;-65
2022/04/02 11:12:45;;;;;;;3.50;3.30;;;4.40;99.90;;;;;;5093638;28;20605;-65
2022/04/02 11:15:24;;;;;;;3.72;3.53;;;4.40;99.90;;;;;;5093821;28;20248;-65
2022/04/02 11:17:55;;;;;;;6.68;3.90;;;4.50;99.90;;;;;;5093550;28;20175;-65
2022/04/02 11:20:30;;;;;;;3.85;3.63;;;4.50;99.90;;;;;;5093491;28;20168;-65
2022/04/02 11:23:19;;;;;;;5.75;3.60;;;4.50;99.90;;;;;;5093159;28;20223;-65
2022/04/02 11:25:54;;;;;;;4.45;4.03;;;4.30;99.90;;;;;;5093400;28;20205;-65
2022/04/02 11:28:22;;;;;;;4.05;3.83;;;4.30;99.90;;;;;;5093425;28;20159;-65
2022/04/02 11:31:03;;;;;;;4.82;3.53;;;4.20;99.90;;;;;;5093232;28;20190;-66
2022/04/02 11:33:32;;;;;;;4.78;3.03;;;4.20;99.90;;;;;;5093369;28;20167;-65
2022/04/02 11:36:06;;;;;;;4.45;4.05;;;4.10;99.90;;;;;;5093364;28;20234;-66
2022/04/02 11:38:52;;;;;;;6.05;3.92;;;4.00;99.90;;;;;;5093341;28;20168;-65
2022/04/02 11:41:24;;;;;;;4.22;3.85;;;3.80;99.90;;;;;;5093129;28;20174;-65
2022/04/02 11:43:52;;;;;;;4.30;3.90;;;3.50;99.90;;;;;;5093264;28;20526;-65
2022/04/02 11:46:20;;;;;;;4.50;4.10;;;3.30;99.90;;;;;;5093212;28;20164;-65
2022/04/02 11:48:51;;;;;;;4.10;3.80;;;3.20;99.90;;;;;;5093225;28;20572;-65
2022/04/02 11:51:19;;;;;;;4.75;3.45;;;3.20;99.90;;;;;;5093066;28;20200;-65
2022/04/02 11:53:45;;;;;;;4.88;4.38;;;3.40;99.90;;;;;;5093059;28;20164;-65
2022/04/02 11:56:39;;;;;;;4.18;3.88;;;3.60;99.90;;;;;;5093104;28;20163;-65
2022/04/02 11:59:09;;;;;;;4.15;3.92;;;4.00;99.90;;;;;;5091085;28;20180;-65
2022/04/02 12:01:41;;;;;;;4.25;3.97;;;4.30;99.90;;;;;;5093000;28;20274;-65
2022/04/02 12:04:14;;;;;;;4.40;4.10;;;4.40;99.90;;;;;;5092993;28;20171;-65
2022/04/02 12:06:45;;;;;;;5.10;4.45;;;4.50;99.90;;;;;;5093113;28;20191;-65
2022/04/02 12:09:12;;;;;;;5.38;3.97;;;4.30;99.90;;;;;;5094885;28;20251;-65
2022/04/02 12:11:40;;;;;;;3.72;3.53;;;4.10;99.90;;;;;;5096859;28;20195;-65
2022/04/02 12:14:06;;;;;;;9.98;4.55;;;4.00;99.90;;;;;;5096795;28;20225;-65
2022/04/02 12:16:32;;;;;;;5.43;3.83;;;4.10;99.90;;;;;;5096681;28;20168;-65
2022/04/02 12:18:58;;;;;;;4.53;4.13;;;4.00;99.90;;;;;;5096706;28;20164;-65
2022/04/02 12:21:35;;;;;;;5.43;4.38;;;4.00;99.90;;;;;;5096433;28;20255;-65
2022/04/02 12:24:03;;;;;;;4.22;3.88;;;4.00;99.90;;;;;;5096675;28;20164;-65
2022/04/02 12:26:29;;;;;;;4.25;3.85;;;4.00;99.90;;;;;;5096560;28;20163;-65
2022/04/02 12:29:03;;;;;;;4.15;3.92;;;3.80;99.90;;;;;;5096534;28;20167;-65
2022/04/02 12:31:30;;;;;;;4.15;3.75;;;3.80;99.90;;;;;;5096440;28;20160;-65
2022/04/02 12:33:58;;;;;;;4.60;4.18;;;3.70;99.90;;;;;;5096395;28;20167;-65
2022/04/02 12:36:31;;;;;;;7.03;4.20;;;3.70;99.90;;;;;;5096365;28;20217;-65
2022/04/02 12:39:03;;;;;;;4.50;4.10;;;3.70;99.90;;;;;;5096315;28;20163;-65
2022/04/02 12:41:29;;;;;;;4.93;4.60;;;3.70;99.90;;;;;;5096161;28;20164;-65
2022/04/02 12:44:00;;;;;;;4.00;3.80;;;3.60;99.90;;;;;;5096161;28;20571;-65
2022/04/02 12:46:26;;;;;;;4.47;4.00;;;3.70;99.90;;;;;;5096176;28;20175;-65
2022/04/02 12:48:53;;;;;;;4.43;4.03;;;3.60;99.90;;;;;;5096098;28;20171;-65
2022/04/02 12:51:19;;;;;;;4.40;4.10;;;3.60;99.90;;;;;;5094845;28;20172;-65
2022/04/02 12:53:48;;;;;;;5.28;4.43;;;3.70;99.90;;;;;;5095945;28;20175;-65
2022/04/02 12:56:28;;;;;;;6.32;4.70;;;3.80;99.90;;;;;;5095865;28;20166;-65
2022/04/02 12:58:55;;;;;;;4.85;4.47;;;3.80;99.90;;;;;;5095957;28;20163;-65
2022/04/02 13:01:25;;;;;;;4.70;4.40;;;3.60;99.90;;;;;;5095749;28;20285;-65
2022/04/02 13:04:10;;;;;;;4.47;4.05;;;3.40;99.90;;;;;;5095778;28;20171;-65
2022/04/02 13:06:46;;;;;;;5.30;4.90;;;3.30;99.90;;;;;;5095701;28;20523;-65
2022/04/02 13:09:17;;;;;;;5.47;4.95;;;3.20;99.90;;;;;;5095627;28;20229;-65
2022/04/02 13:12:05;;;;;;;4.90;4.50;;;3.10;99.90;;;;;;5095616;28;20168;-65
2022/04/02 13:14:33;;;;;;;5.38;4.85;;;3.20;99.90;;;;;;5095596;28;20293;-65
2022/04/02 13:17:17;;;;;;;4.93;4.47;;;3.40;99.90;;;;;;5095501;28;20175;-65
2022/04/02 13:22:47;;;;;;;5.38;4.88;;;3.60;99.90;;;;;;5095284;28;20593;-66
2022/04/02 13:25:23;;;;;;;5.53;4.97;;;3.90;99.90;;;;;;5093998;28;20172;-65
2022/04/02 13:27:48;;;;;;;5.43;5.10;;;4.00;99.90;;;;;;5095292;28;20246;-65
2022/04/02 13:30:18;;;;;;;5.65;4.68;;;4.20;99.90;;;;;;5095188;28;20211;-66
2022/04/02 13:33:05;;;;;;;5.20;4.40;;;4.10;99.90;;;;;;5095232;28;20164;-65
2022/04/02 13:35:42;;;;;;;4.47;4.18;;;4.00;99.90;;;;;;5095177;28;20637;-65
2022/04/02 13:38:49;;;;;;;6.03;4.30;;;3.80;99.90;;;;;;5094996;28;20167;-65
2022/04/02 13:41:55;;;;;;;4.15;3.95;;;3.90;99.90;;;;;;5094858;28;20176;-65
2022/04/02 13:44:23;;;;;;;4.80;4.38;;;4.10;99.90;;;;;;5082697;28;20244;-66
2022/04/02 13:46:52;;;;;;;4.03;3.63;;;4.10;99.90;;;;;;5094930;28;20168;-65
2022/04/02 13:49:28;;;;;;;6.10;4.20;;;3.80;99.90;;;;;;5094923;28;20549;-65
2022/04/02 13:51:57;;;;;;;4.97;4.53;;;3.50;99.90;;;;;;5094972;28;20250;-65
2022/04/02 13:54:33;;;;;;;4.60;4.30;;;3.30;99.90;;;;;;5094706;28;20201;-65
2022/04/02 13:57:10;;;;;;;4.50;3.80;;;3.30;99.90;;;;;;5094761;28;20656;-65
2022/04/02 13:59:57;;;;;;;4.05;3.75;;;3.30;99.90;;;;;;5094747;28;20599;-65
2022/04/02 14:02:30;;;;;;;4.28;3.88;;;3.40;99.90;;;;;;5094468;28;20202;-65
2022/04/02 14:05:21;;;;;;;4.50;3.63;;;3.60;99.90;;;;;;5093844;28;20170;-65
2022/04/02 14:08:08;;;;;;;5.85;3.47;;;3.60;99.90;;;;;;5094517;28;20163;-65
2022/04/02 14:10:51;;;;;;;4.35;4.05;;;3.90;99.90;;;;;;5094650;28;20238;-66
2022/04/02 14:13:24;;;;;;;4.10;3.80;;;4.00;99.90;;;;;;5094403;28;20191;-65
2022/04/02 14:15:55;;;;;;;5.63;3.65;;;4.10;99.90;;;;;;5094386;28;20172;-66
2022/04/02 14:18:39;;;;;;;3.92;3.17;;;4.30;99.90;;;;;;5093002;28;20182;-66
2022/04/02 14:21:07;;;;;;;3.33;3.00;;;4.40;99.90;;;;;;5094253;28;20656;-65
2022/04/02 14:24:00;;;;;;;3.10;2.90;;;4.40;99.90;;;;;;5093955;28;20755;-66
2022/04/02 14:26:59;;;;;;;4.40;3.13;;;4.50;99.90;;;;;;5094107;28;20250;-65
2022/04/02 14:29:37;;;;;;;3.42;3.10;;;4.50;99.90;;;;;;5094098;28;20739;-65
2022/04/02 14:32:24;;;;;;;5.70;3.35;;;4.50;99.90;;;;;;5093566;28;20171;-65
2022/04/02 14:35:27;;;;;;;6.97;3.47;;;4.60;99.90;;;;;;5094023;28;20220;-65
2022/04/02 14:38:17;;;;;;;4.97;3.53;;;4.60;99.90;;;;;;5093619;28;20178;-66
2022/04/02 14:40:53;;;;;;;3.92;3.42;;;4.40;99.90;;;;;;5094227;28;20171;-66
2022/04/02 14:43:41;;;;;;;3.72;3.22;;;4.50;99.90;;;;;;5094029;28;20286;-66
2022/04/02 14:46:27;;;;;;;3.50;3.30;;;4.90;99.90;;;;;;5093907;28;20168;-65
2022/04/02 14:49:32;;;;;;;3.45;3.25;;;5.30;99.90;;;;;;5093848;28;20159;-65
2022/04/02 14:52:20;;;;;;;2.97;2.78;;;5.70;99.90;;;;;;5093788;28;20242;-66
2022/04/02 14:55:13;;;;;;;3.38;3.17;;;6.00;99.90;;;;;;5093733;28;20178;-65
2022/04/02 14:58:25;;;;;;;3.30;3.10;;;6.30;99.90;;;;;;5093630;28;20191;-66
2022/04/02 15:01:33;;;;;;;4.07;3.88;;;6.70;99.90;;;;;;5092354;28;20180;-66
2022/04/02 15:04:01;;;;;;;3.78;3.58;;;6.90;99.90;;;;;;5071146;28;20274;-66
2022/04/02 15:06:45;;;;;;;3.28;2.90;;;7.00;99.90;;;;;;5071188;28;20176;-66
2022/04/02 15:09:52;;;;;;;4.80;3.30;;;7.00;99.90;;;;;;5084722;28;20191;-66
2022/04/02 15:12:25;;;;;;;3.90;3.45;;;7.30;99.90;;;;;;5090293;28;20258;-66
2022/04/02 15:15:01;;;;;;;3.25;2.95;;;7.20;99.90;;;;;;5093436;28;20170;-66
2022/04/02 15:17:28;;;;;;;3.85;3.55;;;7.00;99.90;;;;;;5093487;28;20302;-66
2022/04/02 15:20:19;;;;;;;3.45;3.25;;;6.80;99.90;;;;;;5093393;28;20246;-66
2022/04/02 15:23:03;;;;;;;3.33;3.13;;;6.60;99.90;;;;;;5093255;28;20219;-66
2022/04/02 15:25:35;;;;;;;4.90;3.33;;;6.40;99.90;;;;;;5093445;28;20197;-66
2022/04/02 15:28:01;;;;;;;3.40;3.20;;;6.50;99.90;;;;;;5093488;28;20156;-66
2022/04/02 15:30:29;;;;;;;3.45;3.25;;;6.60;99.90;;;;;;5093277;28;20678;-66
2022/04/02 15:33:41;;;;;;;3.90;3.60;;;6.70;99.90;;;;;;5093408;28;20198;-66
2022/04/02 15:36:07;;;;;;;5.05;3.60;;;6.80;99.90;;;;;;5092019;28;20659;-66
2022/04/02 15:38:34;;;;;;;3.47;3.28;;;7.00;99.90;;;;;;5093269;28;20168;-66
2022/04/02 15:41:07;;;;;;;4.00;3.70;;;6.90;99.90;;;;;;5093239;28;20163;-66
2022/04/02 15:43:41;;;;;;;4.55;4.35;;;6.80;99.90;;;;;;5094116;28;20199;-66
2022/04/02 15:46:22;;;;;;;3.90;3.60;;;6.70;99.90;;;;;;5097279;28;20160;-66
2022/04/02 15:49:10;;;;;;;3.88;3.58;;;6.60;99.90;;;;;;5097358;28;20171;-66
2022/04/02 15:51:55;;;;;;;4.15;3.85;;;6.50;99.90;;;;;;5097233;28;20163;-66
2022/04/02 15:54:40;;;;;;;3.85;3.65;;;6.50;99.90;;;;;;5088740;28;20241;-66
2022/04/02 15:57:09;;;;;;;4.00;3.70;;;6.20;99.90;;;;;;5097197;28;20221;-66
2022/04/02 15:59:38;;;;;;;6.15;3.28;;;5.90;99.90;;;;;;5097020;28;20263;-66
2022/04/02 16:02:05;;;;;;;3.63;3.33;;;5.60;99.90;;;;;;5097062;28;20207;-66
2022/04/02 16:04:30;;;;;;;4.35;4.05;;;5.30;99.90;;;;;;5097050;28;20527;-66
2022/04/02 16:07:24;;;;;;;3.83;3.63;;;5.10;99.90;;;;;;5096977;28;20171;-66
2022/04/02 16:10:09;;;;;;;6.30;4.28;;;5.00;99.90;;;;;;5096870;28;20164;-66
2022/04/02 16:12:36;;;;;;;4.53;4.18;;;4.90;99.90;;;;;;5096814;28;20167;-66
2022/04/02 16:15:20;;;;;;;4.30;3.88;;;4.80;99.90;;;;;;5096774;28;20164;-66
2022/04/02 16:18:10;;;;;;;4.00;3.70;;;4.80;99.90;;;;;;5096727;28;20174;-66
2022/04/02 16:20:36;;;;;;;4.18;3.75;;;5.00;99.90;;;;;;5096715;28;20168;-65
2022/04/02 16:23:02;;;;;;;3.55;3.25;;;5.30;99.90;;;;;;5096429;28;20234;-65
2022/04/02 16:25:29;;;;;;;4.38;3.97;;;5.40;99.90;;;;;;5096623;28;20168;-65
2022/04/02 16:27:55;;;;;;;4.22;3.85;;;5.60;99.90;;;;;;5096570;28;20558;-66
2022/04/02 16:30:21;;;;;;;7.38;3.63;;;5.70;99.90;;;;;;5096437;28;20188;-65
2022/04/02 16:32:47;;;;;;;3.80;3.60;;;5.80;99.90;;;;;;5096473;28;20168;-65
2022/04/02 16:35:15;;;;;;;3.60;3.40;;;5.90;99.90;;;;;;5096410;28;20172;-66
2022/04/02 16:37:42;;;;;;;3.90;3.60;;;5.90;99.90;;;;;;5095124;28;20560;-66
2022/04/02 16:40:15;;;;;;;4.43;3.85;;;5.80;99.90;;;;;;5096350;28;20180;-66
2022/04/02 16:42:42;;;;;;;3.78;3.47;;;5.60;99.90;;;;;;5096247;28;20588;-66
2022/04/02 16:45:11;;;;;;;4.38;3.50;;;5.40;99.90;;;;;;5096222;28;20224;-66
2022/04/02 16:47:37;;;;;;;4.20;3.80;;;5.20;99.90;;;;;;5094361;28;20179;-66
2022/04/02 16:50:06;;;;;;;5.50;3.13;;;5.00;99.90;;;;;;5095697;28;20171;-66
2022/04/02 16:52:36;;;;;;;4.03;3.47;;;4.80;99.90;;;;;;5094807;28;20183;-66
2022/04/02 16:55:11;;;;;;;4.57;3.30;;;4.70;99.90;;;;;;5095545;28;20625;-66
2022/04/02 16:57:42;;;;;;;3.35;3.13;;;4.60;99.90;;;;;;5096007;28;20202;-66
2022/04/02 17:00:13;;;;;;;7.25;3.60;;;4.50;99.90;;;;;;5095596;28;20224;-65
2022/04/02 17:02:44;;;;;;;3.50;3.20;;;4.30;99.90;;;;;;5095681;28;20572;-66
2022/04/02 17:05:15;;;;;;;3.72;3.42;;;4.20;99.90;;;;;;5095866;28;20171;-66
2022/04/02 17:07:54;;;;;;;4.38;3.08;;;4.20;99.90;;;;;;5095834;28;20171;-66
2022/04/02 17:10:29;;;;;;;4.30;3.90;;;4.10;99.90;;;;;;5095729;28;20167;-65
2022/04/02 17:12:57;;;;;;;5.07;3.20;;;4.10;99.90;;;;;;5095718;28;20527;-66
2022/04/02 17:15:23;;;;;;;3.05;2.85;;;4.20;99.90;;;;;;5095668;28;20179;-65
2022/04/02 17:17:50;;;;;;;4.15;3.85;;;4.30;99.90;;;;;;5095632;28;20176;-65
2022/04/02 17:20:28;;;;;;;3.50;3.20;;;4.30;99.90;;;;;;5095569;28;20172;-66
2022/04/02 17:22:54;;;;;;;2.70;2.60;;;4.20;99.90;;;;;;5093954;28;20219;-65
2022/04/02 17:25:20;;;;;;;3.50;3.30;;;4.20;99.90;;;;;;5095472;28;20255;-66
2022/04/02 17:27:54;;;;;;;2.63;2.42;;;4.20;99.90;;;;;;5095419;28;20521;-65
2022/04/02 17:30:22;;;;;;;2.40;2.20;;;4.10;99.90;;;;;;5095292;28;20186;-66
2022/04/02 17:32:49;;;;;;;2.83;2.60;;;3.90;99.90;;;;;;5095233;28;20498;-65
2022/04/02 17:35:17;;;;;;;3.30;2.97;;;3.80;99.90;;;;;;5095086;28;20168;-65
2022/04/02 17:37:45;;;;;;;2.83;2.35;;;3.60;99.90;;;;;;5095129;28;20160;-65
2022/04/02 17:40:20;;;;;;;3.03;2.50;;;3.50;99.90;;;;;;5095021;28;20258;-66
2022/04/02 17:42:54;;;;;;;3.05;2.80;;;3.40;99.90;;;;;;5094975;28;20679;-65
2022/04/02 17:45:25;;;;;;;2.65;2.45;;;3.30;99.90;;;;;;5095023;28;20163;-65
2022/04/02 17:47:54;;;;;;;2.78;2.67;;;3.20;99.90;;;;;;5094918;28;20160;-65
2022/04/02 17:50:29;;;;;;;2.17;2.17;;;3.10;99.90;;;;;;5094886;28;20160;-65
2022/04/02 17:53:13;;;;;;;2.65;2.55;;;3.20;99.90;;;;;;5094954;28;20352;-66
2022/04/02 17:55:40;;;;;;;2.75;2.55;;;3.10;99.90;;;;;;5094812;28;20526;-65
2022/04/02 17:58:21;;;;;;;3.08;2.88;;;3.00;99.90;;;;;;5094749;28;20570;-65
2022/04/02 18:00:56;;;;;;;2.60;2.42;;;3.00;99.90;;;;;;5094755;28;20170;-65
